sensor_id;sensor_type;location;lat;lon;timestamp;temperature;humidity
68912;SHT31;55953;51.650;-0.522;2023-03-01T00:01:45;5.76;78.06
68912;SHT31;55953;51.650;-0.522;2023-03-01T00:04:13;5.73;78.46
68912;SHT31;55953;51.650;-0.522;2023-03-01T00:06:42;5.68;79.12
68912;SHT31;55953;51.650;-0.522;2023-03-01T00:09:14;5.62;79.63
68912;SHT31;55953;51.650;-0.522;2023-03-01T00:11:43;5.60;79.96
68912;SHT31;55953;51.650;-0.522;2023-03-01T00:14:11;5.52;80.47
68912;SHT31;55953;51.650;-0.522;2023-03-01T00:16:40;5.49;80.64
68912;SHT31;55953;51.650;-0.522;2023-03-01T00:19:14;5.48;80.59
68912;SHT31;55953;51.650;-0.522;2023-03-01T00:21:49;5.46;80.42
68912;SHT31;55953;51.650;-0.522;2023-03-01T00:24:17;5.48;80.46
68912;SHT31;55953;51.650;-0.522;2023-03-01T00:26:45;5.48;80.47
68912;SHT31;55953;51.650;-0.522;2023-03-01T00:29:13;5.46;80.56
68912;SHT31;55953;51.650;-0.522;2023-03-01T00:31:41;5.45;80.66
68912;SHT31;55953;51.650;-0.522;2023-03-01T00:34:09;5.45;80.67
68912;SHT31;55953;51.650;-0.522;2023-03-01T00:36:37;5.43;80.73
68912;SHT31;55953;51.650;-0.522;2023-03-01T00:39:07;5.44;80.65
68912;SHT31;55953;51.650;-0.522;2023-03-01T00:41:40;5.45;80.52
68912;SHT31;55953;51.650;-0.522;2023-03-01T00:44:10;5.41;80.55
68912;SHT31;55953;51.650;-0.522;2023-03-01T00:46:38;5.40;80.60
68912;SHT31;55953;51.650;-0.522;2023-03-01T00:49:06;5.40;80.58
68912;SHT31;55953;51.650;-0.522;2023-03-01T00:51:34;5.38;80.53
68912;SHT31;55953;51.650;-0.522;2023-03-01T00:54:26;5.33;80.61
68912;SHT31;55953;51.650;-0.522;2023-03-01T00:56:54;5.30;80.65
68912;SHT31;55953;51.650;-0.522;2023-03-01T00:59:22;5.32;80.46
68912;SHT31;55953;51.650;-0.522;2023-03-01T01:01:50;5.34;80.44
68912;SHT31;55953;51.650;-0.522;2023-03-01T01:04:18;5.35;80.40
68912;SHT31;55953;51.650;-0.522;2023-03-01T01:06:46;5.36;80.43
68912;SHT31;55953;51.650;-0.522;2023-03-01T01:09:16;5.33;80.48
68912;SHT31;55953;51.650;-0.522;2023-03-01T01:11:46;5.31;80.61
68912;SHT31;55953;51.650;-0.522;2023-03-01T01:14:40;5.33;80.54
68912;SHT31;55953;51.650;-0.522;2023-03-01T01:17:56;5.32;80.58
68912;SHT31;55953;51.650;-0.522;2023-03-01T01:21:14;5.32;80.48
68912;SHT31;55953;51.650;-0.522;2023-03-01T01:23:45;5.35;80.42
68912;SHT31;55953;51.650;-0.522;2023-03-01T01:26:18;5.35;80.35
68912;SHT31;55953;51.650;-0.522;2023-03-01T01:28:50;5.34;80.48
68912;SHT31;55953;51.650;-0.522;2023-03-01T01:31:19;5.31;80.64
68912;SHT31;55953;51.650;-0.522;2023-03-01T01:33:47;5.32;80.59
68912;SHT31;55953;51.650;-0.522;2023-03-01T01:36:15;5.28;80.81
68912;SHT31;55953;51.650;-0.522;2023-03-01T01:38:44;5.26;80.99
68912;SHT31;55953;51.650;-0.522;2023-03-01T01:41:12;5.23;81.14
68912;SHT31;55953;51.650;-0.522;2023-03-01T01:43:42;5.24;81.10
68912;SHT31;55953;51.650;-0.522;2023-03-01T01:46:21;5.22;81.31
68912;SHT31;55953;51.650;-0.522;2023-03-01T01:49:04;5.20;81.66
68912;SHT31;55953;51.650;-0.522;2023-03-01T01:51:45;5.17;82.00
68912;SHT31;55953;51.650;-0.522;2023-03-01T01:54:19;5.13;82.57
68912;SHT31;55953;51.650;-0.522;2023-03-01T01:56:59;5.08;82.93
68912;SHT31;55953;51.650;-0.522;2023-03-01T01:59:34;5.02;83.31
68912;SHT31;55953;51.650;-0.522;2023-03-01T02:02:04;4.96;83.86
68912;SHT31;55953;51.650;-0.522;2023-03-01T02:04:32;4.89;84.38
68912;SHT31;55953;51.650;-0.522;2023-03-01T02:07:09;4.86;84.38
68912;SHT31;55953;51.650;-0.522;2023-03-01T02:09:50;4.88;84.07
68912;SHT31;55953;51.650;-0.522;2023-03-01T02:12:21;4.89;84.17
68912;SHT31;55953;51.650;-0.522;2023-03-01T02:14:53;4.86;84.41
68912;SHT31;55953;51.650;-0.522;2023-03-01T02:17:20;4.79;85.10
68912;SHT31;55953;51.650;-0.522;2023-03-01T02:20:09;4.80;84.60
68912;SHT31;55953;51.650;-0.522;2023-03-01T02:22:58;4.85;84.52
68912;SHT31;55953;51.650;-0.522;2023-03-01T02:25:39;4.85;84.45
68912;SHT31;55953;51.650;-0.522;2023-03-01T02:30:47;4.77;85.47
68912;SHT31;55953;51.650;-0.522;2023-03-01T02:33:37;4.77;85.21
68912;SHT31;55953;51.650;-0.522;2023-03-01T02:36:17;4.76;85.32
68912;SHT31;55953;51.650;-0.522;2023-03-01T02:38:51;4.77;85.33
68912;SHT31;55953;51.650;-0.522;2023-03-01T02:41:26;4.80;85.07
68912;SHT31;55953;51.650;-0.522;2023-03-01T02:43:59;4.80;85.56
68912;SHT31;55953;51.650;-0.522;2023-03-01T02:46:27;4.77;85.79
68912;SHT31;55953;51.650;-0.522;2023-03-01T02:48:56;4.72;85.96
68912;SHT31;55953;51.650;-0.522;2023-03-01T02:54:17;4.72;85.88
68912;SHT31;55953;51.650;-0.522;2023-03-01T02:56:50;4.68;85.91
68912;SHT31;55953;51.650;-0.522;2023-03-01T02:59:21;4.66;85.63
68912;SHT31;55953;51.650;-0.522;2023-03-01T03:02:02;4.66;85.49
68912;SHT31;55953;51.650;-0.522;2023-03-01T03:04:30;4.63;85.84
68912;SHT31;55953;51.650;-0.522;2023-03-01T03:06:59;4.61;85.94
68912;SHT31;55953;51.650;-0.522;2023-03-01T03:09:27;4.61;85.83
68912;SHT31;55953;51.650;-0.522;2023-03-01T03:11:56;4.60;85.82
68912;SHT31;55953;51.650;-0.522;2023-03-01T03:14:24;4.59;86.09
68912;SHT31;55953;51.650;-0.522;2023-03-01T03:16:52;4.54;86.21
68912;SHT31;55953;51.650;-0.522;2023-03-01T03:19:20;4.53;86.04
68912;SHT31;55953;51.650;-0.522;2023-03-01T03:21:48;4.53;86.07
68912;SHT31;55953;51.650;-0.522;2023-03-01T03:24:17;4.54;85.77
68912;SHT31;55953;51.650;-0.522;2023-03-01T03:26:45;4.57;86.11
68912;SHT31;55953;51.650;-0.522;2023-03-01T03:29:13;4.53;86.03
68912;SHT31;55953;51.650;-0.522;2023-03-01T03:31:41;4.50;86.26
68912;SHT31;55953;51.650;-0.522;2023-03-01T03:34:09;4.49;86.14
68912;SHT31;55953;51.650;-0.522;2023-03-01T03:36:45;4.50;86.16
68912;SHT31;55953;51.650;-0.522;2023-03-01T03:39:13;4.52;85.90
68912;SHT31;55953;51.650;-0.522;2023-03-01T03:41:41;4.52;85.85
68912;SHT31;55953;51.650;-0.522;2023-03-01T03:44:08;4.52;85.76
68912;SHT31;55953;51.650;-0.522;2023-03-01T03:46:36;4.56;85.75
68912;SHT31;55953;51.650;-0.522;2023-03-01T03:49:05;4.57;85.68
68912;SHT31;55953;51.650;-0.522;2023-03-01T03:51:33;4.56;85.56
68912;SHT31;55953;51.650;-0.522;2023-03-01T03:54:00;4.54;85.63
68912;SHT31;55953;51.650;-0.522;2023-03-01T03:56:28;4.51;85.60
68912;SHT31;55953;51.650;-0.522;2023-03-01T03:58:57;4.48;85.69
68912;SHT31;55953;51.650;-0.522;2023-03-01T04:01:25;4.46;85.56
68912;SHT31;55953;51.650;-0.522;2023-03-01T04:03:53;4.46;85.54
68912;SHT31;55953;51.650;-0.522;2023-03-01T04:06:21;4.43;85.44
68912;SHT31;55953;51.650;-0.522;2023-03-01T04:08:49;4.39;85.40
68912;SHT31;55953;51.650;-0.522;2023-03-01T04:11:18;4.36;85.38
68912;SHT31;55953;51.650;-0.522;2023-03-01T04:13:56;4.33;85.40
68912;SHT31;55953;51.650;-0.522;2023-03-01T04:16:26;4.33;85.42
68912;SHT31;55953;51.650;-0.522;2023-03-01T04:18:54;4.41;85.39
68912;SHT31;55953;51.650;-0.522;2023-03-01T04:21:22;4.43;85.26
68912;SHT31;55953;51.650;-0.522;2023-03-01T04:23:50;4.50;85.23
68912;SHT31;55953;51.650;-0.522;2023-03-01T04:26:20;4.55;85.09
68912;SHT31;55953;51.650;-0.522;2023-03-01T04:28:48;4.60;85.02
68912;SHT31;55953;51.650;-0.522;2023-03-01T04:31:18;4.68;84.84
68912;SHT31;55953;51.650;-0.522;2023-03-01T04:33:51;4.70;84.68
68912;SHT31;55953;51.650;-0.522;2023-03-01T04:36:22;4.72;84.59
68912;SHT31;55953;51.650;-0.522;2023-03-01T04:38:53;4.75;84.48
68912;SHT31;55953;51.650;-0.522;2023-03-01T04:41:23;4.73;84.41
68912;SHT31;55953;51.650;-0.522;2023-03-01T04:43:52;4.72;84.46
68912;SHT31;55953;51.650;-0.522;2023-03-01T04:46:20;4.73;84.47
68912;SHT31;55953;51.650;-0.522;2023-03-01T04:48:49;4.66;84.49
68912;SHT31;55953;51.650;-0.522;2023-03-01T04:51:17;4.65;84.56
68912;SHT31;55953;51.650;-0.522;2023-03-01T04:53:46;4.64;84.60
68912;SHT31;55953;51.650;-0.522;2023-03-01T04:56:14;4.62;84.66
68912;SHT31;55953;51.650;-0.522;2023-03-01T04:58:43;4.62;84.60
68912;SHT31;55953;51.650;-0.522;2023-03-01T05:01:16;4.62;84.69
68912;SHT31;55953;51.650;-0.522;2023-03-01T05:03:47;4.60;84.74
68912;SHT31;55953;51.650;-0.522;2023-03-01T05:06:18;4.56;84.84
68912;SHT31;55953;51.650;-0.522;2023-03-01T05:08:48;4.52;84.99
68912;SHT31;55953;51.650;-0.522;2023-03-01T05:11:16;4.51;85.03
68912;SHT31;55953;51.650;-0.522;2023-03-01T05:13:44;4.48;85.16
68912;SHT31;55953;51.650;-0.522;2023-03-01T05:16:12;4.48;84.99
68912;SHT31;55953;51.650;-0.522;2023-03-01T05:18:40;4.51;85.03
68912;SHT31;55953;51.650;-0.522;2023-03-01T05:21:10;4.49;85.01
68912;SHT31;55953;51.650;-0.522;2023-03-01T05:23:44;4.50;84.94
68912;SHT31;55953;51.650;-0.522;2023-03-01T05:26:14;4.49;84.95
68912;SHT31;55953;51.650;-0.522;2023-03-01T05:28:55;4.49;84.93
68912;SHT31;55953;51.650;-0.522;2023-03-01T05:31:27;4.48;84.97
68912;SHT31;55953;51.650;-0.522;2023-03-01T05:33:57;4.47;84.95
68912;SHT31;55953;51.650;-0.522;2023-03-01T05:36:25;4.47;84.93
68912;SHT31;55953;51.650;-0.522;2023-03-01T05:38:53;4.47;84.86
68912;SHT31;55953;51.650;-0.522;2023-03-01T05:41:21;4.46;84.92
68912;SHT31;55953;51.650;-0.522;2023-03-01T05:43:49;4.43;84.95
68912;SHT31;55953;51.650;-0.522;2023-03-01T05:46:17;4.42;84.98
68912;SHT31;55953;51.650;-0.522;2023-03-01T05:48:45;4.39;85.07
68912;SHT31;55953;51.650;-0.522;2023-03-01T05:51:12;4.38;85.00
68912;SHT31;55953;51.650;-0.522;2023-03-01T05:53:40;4.35;85.00
68912;SHT31;55953;51.650;-0.522;2023-03-01T05:56:09;4.33;85.02
68912;SHT31;55953;51.650;-0.522;2023-03-01T05:58:36;4.33;85.02
68912;SHT31;55953;51.650;-0.522;2023-03-01T06:01:10;4.32;84.97
68912;SHT31;55953;51.650;-0.522;2023-03-01T06:03:40;4.31;85.02
68912;SHT31;55953;51.650;-0.522;2023-03-01T06:06:09;4.32;84.90
68912;SHT31;55953;51.650;-0.522;2023-03-01T06:08:37;4.32;84.74
68912;SHT31;55953;51.650;-0.522;2023-03-01T06:11:05;4.31;84.63
68912;SHT31;55953;51.650;-0.522;2023-03-01T06:13:34;4.31;84.72
68912;SHT31;55953;51.650;-0.522;2023-03-01T06:16:05;4.27;84.66
68912;SHT31;55953;51.650;-0.522;2023-03-01T06:18:34;4.30;84.68
68912;SHT31;55953;51.650;-0.522;2023-03-01T06:21:03;4.28;84.59
68912;SHT31;55953;51.650;-0.522;2023-03-01T06:23:32;4.28;84.64
68912;SHT31;55953;51.650;-0.522;2023-03-01T06:26:04;4.26;84.63
68912;SHT31;55953;51.650;-0.522;2023-03-01T06:28:34;4.23;84.60
68912;SHT31;55953;51.650;-0.522;2023-03-01T06:31:03;4.16;84.93
68912;SHT31;55953;51.650;-0.522;2023-03-01T06:33:31;4.13;84.96
68912;SHT31;55953;51.650;-0.522;2023-03-01T06:35:59;4.13;85.02
68912;SHT31;55953;51.650;-0.522;2023-03-01T06:38:27;4.10;85.12
68912;SHT31;55953;51.650;-0.522;2023-03-01T06:40:55;4.10;85.03
68912;SHT31;55953;51.650;-0.522;2023-03-01T06:43:24;4.10;85.12
68912;SHT31;55953;51.650;-0.522;2023-03-01T06:45:51;4.09;85.17
68912;SHT31;55953;51.650;-0.522;2023-03-01T06:48:19;4.08;85.29
68912;SHT31;55953;51.650;-0.522;2023-03-01T06:50:47;4.07;85.28
68912;SHT31;55953;51.650;-0.522;2023-03-01T06:53:15;4.07;85.23
68912;SHT31;55953;51.650;-0.522;2023-03-01T06:55:43;4.09;85.14
68912;SHT31;55953;51.650;-0.522;2023-03-01T06:58:11;4.10;85.03
68912;SHT31;55953;51.650;-0.522;2023-03-01T07:00:39;4.12;84.91
68912;SHT31;55953;51.650;-0.522;2023-03-01T07:03:08;4.14;84.84
68912;SHT31;55953;51.650;-0.522;2023-03-01T07:05:37;4.16;84.74
68912;SHT31;55953;51.650;-0.522;2023-03-01T07:08:05;4.16;84.63
68912;SHT31;55953;51.650;-0.522;2023-03-01T07:10:33;4.16;84.51
68912;SHT31;55953;51.650;-0.522;2023-03-01T07:13:01;4.18;84.50
68912;SHT31;55953;51.650;-0.522;2023-03-01T07:15:29;4.21;84.54
68912;SHT31;55953;51.650;-0.522;2023-03-01T07:17:57;4.25;84.48
68912;SHT31;55953;51.650;-0.522;2023-03-01T07:20:24;4.25;84.42
68912;SHT31;55953;51.650;-0.522;2023-03-01T07:22:54;4.27;84.51
68912;SHT31;55953;51.650;-0.522;2023-03-01T07:25:25;4.29;84.53
68912;SHT31;55953;51.650;-0.522;2023-03-01T07:27:53;4.35;84.44
68912;SHT31;55953;51.650;-0.522;2023-03-01T07:30:21;4.40;84.28
68912;SHT31;55953;51.650;-0.522;2023-03-01T07:32:53;4.45;84.21
68912;SHT31;55953;51.650;-0.522;2023-03-01T07:35:22;4.54;84.10
68912;SHT31;55953;51.650;-0.522;2023-03-01T07:37:53;4.55;83.91
68912;SHT31;55953;51.650;-0.522;2023-03-01T07:40:21;4.55;83.90
68912;SHT31;55953;51.650;-0.522;2023-03-01T07:42:49;4.58;83.86
68912;SHT31;55953;51.650;-0.522;2023-03-01T07:45:21;4.54;83.92
68912;SHT31;55953;51.650;-0.522;2023-03-01T07:47:50;4.49;84.04
68912;SHT31;55953;51.650;-0.522;2023-03-01T07:50:21;4.48;84.19
68912;SHT31;55953;51.650;-0.522;2023-03-01T07:52:50;4.50;84.14
68912;SHT31;55953;51.650;-0.522;2023-03-01T07:55:18;4.50;84.11
68912;SHT31;55953;51.650;-0.522;2023-03-01T07:57:47;4.53;84.24
68912;SHT31;55953;51.650;-0.522;2023-03-01T08:00:15;4.61;84.11
68912;SHT31;55953;51.650;-0.522;2023-03-01T08:02:43;4.63;84.02
68912;SHT31;55953;51.650;-0.522;2023-03-01T08:05:11;4.63;84.00
68912;SHT31;55953;51.650;-0.522;2023-03-01T08:07:39;4.67;84.03
68912;SHT31;55953;51.650;-0.522;2023-03-01T08:10:07;4.71;84.06
68912;SHT31;55953;51.650;-0.522;2023-03-01T08:12:36;4.82;84.06
68912;SHT31;55953;51.650;-0.522;2023-03-01T08:15:04;4.90;83.86
68912;SHT31;55953;51.650;-0.522;2023-03-01T08:17:33;5.01;83.79
68912;SHT31;55953;51.650;-0.522;2023-03-01T08:20:01;5.11;83.61
68912;SHT31;55953;51.650;-0.522;2023-03-01T08:22:30;5.18;83.36
68912;SHT31;55953;51.650;-0.522;2023-03-01T08:24:58;5.31;83.43
68912;SHT31;55953;51.650;-0.522;2023-03-01T08:27:26;5.44;83.24
68912;SHT31;55953;51.650;-0.522;2023-03-01T08:29:54;5.55;83.19
68912;SHT31;55953;51.650;-0.522;2023-03-01T08:32:22;5.59;83.17
68912;SHT31;55953;51.650;-0.522;2023-03-01T08:34:50;5.59;82.98
68912;SHT31;55953;51.650;-0.522;2023-03-01T08:37:18;5.55;82.95
68912;SHT31;55953;51.650;-0.522;2023-03-01T08:39:46;5.54;83.12
68912;SHT31;55953;51.650;-0.522;2023-03-01T08:42:14;5.60;83.17
68912;SHT31;55953;51.650;-0.522;2023-03-01T08:44:41;5.65;83.11
68912;SHT31;55953;51.650;-0.522;2023-03-01T08:47:12;5.60;82.90
68912;SHT31;55953;51.650;-0.522;2023-03-01T08:49:40;5.57;83.06
68912;SHT31;55953;51.650;-0.522;2023-03-01T08:52:08;5.55;83.55
68912;SHT31;55953;51.650;-0.522;2023-03-01T08:54:35;5.54;83.95
68912;SHT31;55953;51.650;-0.522;2023-03-01T08:57:03;5.52;84.23
68912;SHT31;55953;51.650;-0.522;2023-03-01T08:59:31;5.57;84.37
68912;SHT31;55953;51.650;-0.522;2023-03-01T09:02:04;5.60;84.38
68912;SHT31;55953;51.650;-0.522;2023-03-01T09:04:38;5.60;84.29
68912;SHT31;55953;51.650;-0.522;2023-03-01T09:07:06;5.64;84.31
68912;SHT31;55953;51.650;-0.522;2023-03-01T09:09:35;5.77;84.19
68912;SHT31;55953;51.650;-0.522;2023-03-01T09:12:03;5.91;83.98
68912;SHT31;55953;51.650;-0.522;2023-03-01T09:14:31;5.96;83.70
68912;SHT31;55953;51.650;-0.522;2023-03-01T09:16:59;5.97;83.91
68912;SHT31;55953;51.650;-0.522;2023-03-01T09:19:30;5.99;83.88
68912;SHT31;55953;51.650;-0.522;2023-03-01T09:21:58;6.04;83.97
68912;SHT31;55953;51.650;-0.522;2023-03-01T09:24:26;6.08;83.87
68912;SHT31;55953;51.650;-0.522;2023-03-01T09:26:54;6.12;83.76
68912;SHT31;55953;51.650;-0.522;2023-03-01T09:29:23;6.14;83.64
68912;SHT31;55953;51.650;-0.522;2023-03-01T09:31:53;6.22;83.56
68912;SHT31;55953;51.650;-0.522;2023-03-01T09:34:22;6.30;83.15
68912;SHT31;55953;51.650;-0.522;2023-03-01T09:36:51;6.38;82.92
68912;SHT31;55953;51.650;-0.522;2023-03-01T09:39:19;6.43;82.17
68912;SHT31;55953;51.650;-0.522;2023-03-01T09:44:46;6.56;82.33
68912;SHT31;55953;51.650;-0.522;2023-03-01T09:47:23;6.66;81.26
68912;SHT31;55953;51.650;-0.522;2023-03-01T09:55:46;6.76;80.88
68912;SHT31;55953;51.650;-0.522;2023-03-01T10:01:43;6.90;79.32
68912;SHT31;55953;51.650;-0.522;2023-03-01T10:04:45;6.89;79.05
68912;SHT31;55953;51.650;-0.522;2023-03-01T10:10:27;6.88;79.09
68912;SHT31;55953;51.650;-0.522;2023-03-01T10:13:20;6.96;79.00
68912;SHT31;55953;51.650;-0.522;2023-03-01T10:16:18;7.01;78.66
68912;SHT31;55953;51.650;-0.522;2023-03-01T10:19:14;6.99;78.09
68912;SHT31;55953;51.650;-0.522;2023-03-01T10:22:18;7.01;78.33
68912;SHT31;55953;51.650;-0.522;2023-03-01T10:24:59;7.15;77.52
68912;SHT31;55953;51.650;-0.522;2023-03-01T10:27:35;7.06;76.44
68912;SHT31;55953;51.650;-0.522;2023-03-01T10:30:21;7.05;77.16
68912;SHT31;55953;51.650;-0.522;2023-03-01T10:36:04;7.08;76.44
68912;SHT31;55953;51.650;-0.522;2023-03-01T10:38:49;7.13;76.93
68912;SHT31;55953;51.650;-0.522;2023-03-01T10:41:25;7.18;76.88
68912;SHT31;55953;51.650;-0.522;2023-03-01T10:43:58;7.20;76.57
68912;SHT31;55953;51.650;-0.522;2023-03-01T10:49:15;7.20;76.47
68912;SHT31;55953;51.650;-0.522;2023-03-01T10:51:49;7.36;77.14
68912;SHT31;55953;51.650;-0.522;2023-03-01T10:54:25;7.48;76.50
68912;SHT31;55953;51.650;-0.522;2023-03-01T10:57:01;7.40;76.09
68912;SHT31;55953;51.650;-0.522;2023-03-01T11:02:26;7.57;76.27
68912;SHT31;55953;51.650;-0.522;2023-03-01T11:04:58;7.73;76.52
68912;SHT31;55953;51.650;-0.522;2023-03-01T11:07:30;7.84;76.21
68912;SHT31;55953;51.650;-0.522;2023-03-01T11:10:16;7.84;75.38
68912;SHT31;55953;51.650;-0.522;2023-03-01T11:12:47;7.88;75.82
68912;SHT31;55953;51.650;-0.522;2023-03-01T11:15:25;8.00;75.84
68912;SHT31;55953;51.650;-0.522;2023-03-01T11:17:56;8.07;75.50
68912;SHT31;55953;51.650;-0.522;2023-03-01T11:20:39;8.09;75.14
68912;SHT31;55953;51.650;-0.522;2023-03-01T11:23:11;7.94;75.04
68912;SHT31;55953;51.650;-0.522;2023-03-01T11:25:42;7.86;75.21
68912;SHT31;55953;51.650;-0.522;2023-03-01T11:28:17;7.79;75.43
68912;SHT31;55953;51.650;-0.522;2023-03-01T11:30:58;7.63;75.24
68912;SHT31;55953;51.650;-0.522;2023-03-01T11:36:48;7.40;76.03
68912;SHT31;55953;51.650;-0.522;2023-03-01T11:39:37;7.29;76.43
68912;SHT31;55953;51.650;-0.522;2023-03-01T11:42:21;7.20;77.04
68912;SHT31;55953;51.650;-0.522;2023-03-01T11:51:22;7.01;79.45
68912;SHT31;55953;51.650;-0.522;2023-03-01T11:54:01;7.04;79.90
68912;SHT31;55953;51.650;-0.522;2023-03-01T11:56:41;7.19;79.99
68912;SHT31;55953;51.650;-0.522;2023-03-01T12:26:09;7.94;76.75
68912;SHT31;55953;51.650;-0.522;2023-03-01T12:37:54;8.19;75.07
68912;SHT31;55953;51.650;-0.522;2023-03-01T12:43:36;8.36;74.34
68912;SHT31;55953;51.650;-0.522;2023-03-01T12:49:24;8.27;74.35
68912;SHT31;55953;51.650;-0.522;2023-03-01T12:54:49;8.57;74.68
68912;SHT31;55953;51.650;-0.522;2023-03-01T12:57:41;8.84;74.40
68912;SHT31;55953;51.650;-0.522;2023-03-01T13:03:48;9.33;71.41
68912;SHT31;55953;51.650;-0.522;2023-03-01T13:06:54;9.24;72.34
68912;SHT31;55953;51.650;-0.522;2023-03-01T13:09:40;8.90;72.36
68912;SHT31;55953;51.650;-0.522;2023-03-01T13:15:36;8.66;74.69
68912;SHT31;55953;51.650;-0.522;2023-03-01T13:31:02;8.57;74.62
68912;SHT31;55953;51.650;-0.522;2023-03-01T13:33:39;8.34;75.04
68912;SHT31;55953;51.650;-0.522;2023-03-01T13:49:47;8.05;76.49
68912;SHT31;55953;51.650;-0.522;2023-03-01T13:52:41;8.01;76.91
68912;SHT31;55953;51.650;-0.522;2023-03-01T13:57:51;8.17;77.31
68912;SHT31;55953;51.650;-0.522;2023-03-01T14:00:26;8.27;77.30
68912;SHT31;55953;51.650;-0.522;2023-03-01T14:03:08;8.36;77.22
68912;SHT31;55953;51.650;-0.522;2023-03-01T14:05:42;8.36;77.19
68912;SHT31;55953;51.650;-0.522;2023-03-01T14:12:06;8.30;76.81
68912;SHT31;55953;51.650;-0.522;2023-03-01T14:15:32;8.33;76.36
68912;SHT31;55953;51.650;-0.522;2023-03-01T14:18:20;8.43;76.66
68912;SHT31;55953;51.650;-0.522;2023-03-01T14:21:00;8.58;75.83
68912;SHT31;55953;51.650;-0.522;2023-03-01T14:23:34;8.60;75.22
68912;SHT31;55953;51.650;-0.522;2023-03-01T14:26:03;8.63;74.89
68912;SHT31;55953;51.650;-0.522;2023-03-01T14:28:31;8.61;74.11
68912;SHT31;55953;51.650;-0.522;2023-03-01T14:31:50;8.57;73.94
68912;SHT31;55953;51.650;-0.522;2023-03-01T14:34:19;8.57;74.38
68912;SHT31;55953;51.650;-0.522;2023-03-01T14:36:50;8.66;73.48
68912;SHT31;55953;51.650;-0.522;2023-03-01T14:39:19;8.84;73.88
68912;SHT31;55953;51.650;-0.522;2023-03-01T14:41:53;9.12;72.87
68912;SHT31;55953;51.650;-0.522;2023-03-01T14:44:23;9.15;71.57
68912;SHT31;55953;51.650;-0.522;2023-03-01T14:46:52;9.07;71.80
68912;SHT31;55953;51.650;-0.522;2023-03-01T14:49:24;9.05;72.22
68912;SHT31;55953;51.650;-0.522;2023-03-01T14:54:39;8.73;72.86
68912;SHT31;55953;51.650;-0.522;2023-03-01T14:57:22;8.54;73.56
68912;SHT31;55953;51.650;-0.522;2023-03-01T14:59:53;8.46;74.12
68912;SHT31;55953;51.650;-0.522;2023-03-01T15:02:27;8.44;74.36
68912;SHT31;55953;51.650;-0.522;2023-03-01T15:04:58;8.48;74.17
68912;SHT31;55953;51.650;-0.522;2023-03-01T15:07:36;8.47;73.62
68912;SHT31;55953;51.650;-0.522;2023-03-01T15:10:14;8.45;73.33
68912;SHT31;55953;51.650;-0.522;2023-03-01T15:12:52;8.43;74.07
68912;SHT31;55953;51.650;-0.522;2023-03-01T15:15:35;8.43;74.99
68912;SHT31;55953;51.650;-0.522;2023-03-01T15:18:42;8.25;75.32
68912;SHT31;55953;51.650;-0.522;2023-03-01T15:21:08;8.16;75.50
68912;SHT31;55953;51.650;-0.522;2023-03-01T15:23:47;8.22;75.80
68912;SHT31;55953;51.650;-0.522;2023-03-01T15:26:24;8.13;75.87
68912;SHT31;55953;51.650;-0.522;2023-03-01T15:28:58;8.22;75.85
68912;SHT31;55953;51.650;-0.522;2023-03-01T15:31:28;8.27;75.93
68912;SHT31;55953;51.650;-0.522;2023-03-01T15:36:52;8.22;76.03
68912;SHT31;55953;51.650;-0.522;2023-03-01T15:39:35;8.14;75.88
68912;SHT31;55953;51.650;-0.522;2023-03-01T15:47:47;7.97;76.32
68912;SHT31;55953;51.650;-0.522;2023-03-01T15:50:43;7.91;76.74
68912;SHT31;55953;51.650;-0.522;2023-03-01T15:53:13;7.99;76.46
68912;SHT31;55953;51.650;-0.522;2023-03-01T15:55:42;8.16;76.57
68912;SHT31;55953;51.650;-0.522;2023-03-01T15:58:12;8.24;76.13
68912;SHT31;55953;51.650;-0.522;2023-03-01T16:00:44;8.19;75.99
68912;SHT31;55953;51.650;-0.522;2023-03-01T16:03:28;8.13;75.81
68912;SHT31;55953;51.650;-0.522;2023-03-01T16:05:56;8.13;75.69
68912;SHT31;55953;51.650;-0.522;2023-03-01T16:08:24;8.12;75.43
68912;SHT31;55953;51.650;-0.522;2023-03-01T16:10:52;8.07;75.46
68912;SHT31;55953;51.650;-0.522;2023-03-01T16:13:22;7.98;75.12
68912;SHT31;55953;51.650;-0.522;2023-03-01T16:15:50;7.91;75.79
68912;SHT31;55953;51.650;-0.522;2023-03-01T16:18:18;7.82;75.79
68912;SHT31;55953;51.650;-0.522;2023-03-01T16:20:46;7.77;75.86
68912;SHT31;55953;51.650;-0.522;2023-03-01T16:23:15;7.72;75.34
68912;SHT31;55953;51.650;-0.522;2023-03-01T16:25:43;7.67;75.47
68912;SHT31;55953;51.650;-0.522;2023-03-01T16:28:11;7.62;75.44
68912;SHT31;55953;51.650;-0.522;2023-03-01T16:30:39;7.61;75.51
68912;SHT31;55953;51.650;-0.522;2023-03-01T16:33:07;7.51;75.54
68912;SHT31;55953;51.650;-0.522;2023-03-01T16:35:56;7.54;75.82
68912;SHT31;55953;51.650;-0.522;2023-03-01T16:38:25;7.59;75.78
68912;SHT31;55953;51.650;-0.522;2023-03-01T16:40:53;7.65;75.74
68912;SHT31;55953;51.650;-0.522;2023-03-01T16:43:21;7.74;75.69
68912;SHT31;55953;51.650;-0.522;2023-03-01T16:45:49;7.81;75.25
68912;SHT31;55953;51.650;-0.522;2023-03-01T16:48:17;7.93;75.30
68912;SHT31;55953;51.650;-0.522;2023-03-01T16:50:45;7.99;74.88
68912;SHT31;55953;51.650;-0.522;2023-03-01T16:53:13;7.94;74.76
68912;SHT31;55953;51.650;-0.522;2023-03-01T16:55:41;7.94;74.92
68912;SHT31;55953;51.650;-0.522;2023-03-01T16:58:12;7.93;74.88
68912;SHT31;55953;51.650;-0.522;2023-03-01T17:00:42;7.92;74.74
68912;SHT31;55953;51.650;-0.522;2023-03-01T17:03:10;7.87;74.90
68912;SHT31;55953;51.650;-0.522;2023-03-01T17:05:41;7.74;76.52
68912;SHT31;55953;51.650;-0.522;2023-03-01T17:08:09;7.48;78.24
68912;SHT31;55953;51.650;-0.522;2023-03-01T17:10:37;7.29;78.81
68912;SHT31;55953;51.650;-0.522;2023-03-01T17:13:04;7.15;78.96
68912;SHT31;55953;51.650;-0.522;2023-03-01T17:15:32;7.03;78.96
68912;SHT31;55953;51.650;-0.522;2023-03-01T17:18:00;6.98;79.14
68912;SHT31;55953;51.650;-0.522;2023-03-01T17:20:28;6.90;79.45
68912;SHT31;55953;51.650;-0.522;2023-03-01T17:22:56;6.86;79.29
68912;SHT31;55953;51.650;-0.522;2023-03-01T17:25:25;6.86;79.18
68912;SHT31;55953;51.650;-0.522;2023-03-01T17:27:53;6.77;79.15
68912;SHT31;55953;51.650;-0.522;2023-03-01T17:30:21;6.72;79.19
68912;SHT31;55953;51.650;-0.522;2023-03-01T17:32:49;6.61;78.97
68912;SHT31;55953;51.650;-0.522;2023-03-01T17:35:17;6.56;79.14
68912;SHT31;55953;51.650;-0.522;2023-03-01T17:37:45;6.51;79.30
68912;SHT31;55953;51.650;-0.522;2023-03-01T17:40:13;6.49;79.31
68912;SHT31;55953;51.650;-0.522;2023-03-01T17:42:41;6.46;79.43
68912;SHT31;55953;51.650;-0.522;2023-03-01T17:45:09;6.43;79.38
68912;SHT31;55953;51.650;-0.522;2023-03-01T17:47:37;6.45;79.34
68912;SHT31;55953;51.650;-0.522;2023-03-01T17:50:05;6.45;79.46
68912;SHT31;55953;51.650;-0.522;2023-03-01T17:52:34;6.43;79.49
68912;SHT31;55953;51.650;-0.522;2023-03-01T17:55:03;6.41;79.66
68912;SHT31;55953;51.650;-0.522;2023-03-01T17:57:32;6.39;79.69
68912;SHT31;55953;51.650;-0.522;2023-03-01T18:00:00;6.39;79.56
68912;SHT31;55953;51.650;-0.522;2023-03-01T18:02:37;6.38;79.59
68912;SHT31;55953;51.650;-0.522;2023-03-01T18:05:06;6.42;79.49
68912;SHT31;55953;51.650;-0.522;2023-03-01T18:07:35;6.43;79.51
68912;SHT31;55953;51.650;-0.522;2023-03-01T18:10:03;6.43;79.52
68912;SHT31;55953;51.650;-0.522;2023-03-01T18:12:32;6.43;79.49
68912;SHT31;55953;51.650;-0.522;2023-03-01T18:15:00;6.43;79.61
68912;SHT31;55953;51.650;-0.522;2023-03-01T18:17:28;6.42;79.74